createdAt,value
2018-12-16T00:00:30.838Z,100.00
2018-12-16T00:02:58.563Z,100.00
2018-12-16T00:05:26.089Z,100.00
2018-12-16T00:07:53.610Z,100.00
2018-12-16T00:10:21.115Z,100.00
2018-12-16T00:12:48.652Z,100.00
2018-12-16T00:15:16.173Z,100.00
2018-12-16T00:17:43.704Z,100.00
2018-12-16T00:20:11.247Z,100.00
2018-12-16T00:22:39.052Z,100.00
2018-12-16T00:25:07.263Z,100.00
2018-12-16T00:27:35.080Z,100.00
2018-12-16T00:30:02.608Z,100.00
2018-12-16T00:32:30.414Z,100.00
2018-12-16T00:34:57.913Z,100.00
2018-12-16T00:37:26.030Z,100.00
2018-12-16T00:39:53.551Z,100.00
2018-12-16T00:42:21.071Z,100.00
2018-12-16T00:44:48.621Z,100.00
2018-12-16T00:47:16.147Z,100.00
2018-12-16T00:49:43.666Z,100.00
2018-12-16T00:52:11.180Z,100.00
2018-12-16T00:54:38.865Z,100.00
2018-12-16T00:57:06.370Z,100.00
2018-12-16T00:59:33.888Z,100.00
2018-12-16T01:02:01.440Z,100.00
2018-12-16T01:04:29.107Z,100.00
2018-12-16T01:06:56.667Z,100.00
2018-12-16T01:09:24.486Z,100.00
2018-12-16T01:11:51.988Z,100.00
2018-12-16T01:14:19.508Z,100.00
2018-12-16T01:16:47.087Z,100.00
2018-12-16T01:19:14.637Z,100.00
2018-12-16T01:21:42.135Z,100.00
2018-12-16T01:24:09.833Z,100.00
2018-12-16T01:26:37.346Z,100.00
2018-12-16T01:29:04.866Z,100.00
2018-12-16T01:31:32.632Z,100.00
2018-12-16T01:34:00.122Z,100.00
2018-12-16T01:39:01.657Z,100.00
2018-12-16T01:41:29.203Z,100.00
2018-12-16T01:43:56.755Z,100.00
2018-12-16T01:46:24.538Z,100.00
2018-12-16T01:48:52.085Z,100.00
2018-12-16T01:51:19.605Z,99.55
2018-12-16T01:56:21.371Z,99.31
2018-12-16T01:58:48.937Z,99.45
2018-12-16T02:01:16.745Z,99.11
2018-12-16T02:03:44.255Z,98.95
2018-12-16T02:06:11.762Z,99.09
2018-12-16T02:08:39.388Z,98.92
2018-12-16T02:11:06.901Z,98.83
2018-12-16T02:13:34.835Z,98.66
2018-12-16T02:16:02.332Z,98.78
2018-12-16T02:18:29.849Z,99.34
2018-12-16T02:20:57.618Z,98.95
2018-12-16T02:23:25.145Z,98.67
2018-12-16T02:25:52.672Z,98.35
2018-12-16T02:28:20.442Z,98.52
2018-12-16T02:30:47.937Z,98.41
2018-12-16T02:33:15.440Z,98.25
2018-12-16T02:35:43.296Z,98.21
2018-12-16T02:38:10.801Z,97.87
2018-12-16T02:40:38.307Z,98.24
2018-12-16T02:43:06.076Z,97.84
2018-12-16T02:45:33.794Z,97.73
2018-12-16T02:48:01.289Z,97.51
2018-12-16T02:50:29.164Z,97.21
2018-12-16T02:53:04.340Z,97.39
2018-12-16T02:55:26.348Z,98.60
2018-12-16T02:57:54.090Z,99.64
2018-12-16T03:00:29.461Z,99.80
2018-12-16T03:02:56.982Z,100.00
2018-12-16T03:05:24.773Z,100.00
2018-12-16T03:07:52.316Z,100.00
2018-12-16T03:10:19.864Z,100.00
2018-12-16T03:12:47.639Z,100.00
2018-12-16T03:15:15.180Z,100.00
2018-12-16T03:17:42.973Z,100.00
2018-12-16T03:20:10.502Z,100.00
2018-12-16T03:22:38.388Z,100.00
2018-12-16T03:25:06.055Z,100.00
2018-12-16T03:27:33.571Z,99.87
2018-12-16T03:30:01.361Z,99.22
2018-12-16T03:32:29.247Z,99.54
2018-12-16T03:34:56.772Z,99.72
2018-12-16T03:37:31.673Z,100.00
2018-12-16T03:39:59.192Z,100.00
2018-12-16T03:42:26.726Z,100.00
2018-12-16T03:44:54.498Z,100.00
2018-12-16T03:47:22.003Z,100.00
2018-12-16T03:49:49.518Z,100.00
2018-12-16T03:52:17.294Z,100.00
2018-12-16T03:54:44.923Z,100.00
2018-12-16T03:57:12.437Z,100.00
2018-12-16T03:59:40.311Z,100.00
2018-12-16T04:02:07.818Z,100.00
2018-12-16T04:04:35.385Z,100.00
2018-12-16T04:07:18.192Z,100.00
2018-12-16T04:09:45.693Z,100.00
2018-12-16T04:12:13.215Z,100.00
2018-12-16T04:14:41.431Z,100.00
2018-12-16T04:17:09.132Z,100.00
2018-12-16T04:19:36.641Z,100.00
2018-12-16T04:22:04.467Z,100.00
2018-12-16T04:24:31.988Z,100.00
2018-12-16T04:26:59.503Z,100.00
2018-12-16T04:29:27.450Z,100.00
2018-12-16T04:31:55.007Z,100.00
2018-12-16T04:34:22.524Z,100.00
2018-12-16T04:36:50.419Z,100.00
2018-12-16T04:39:17.981Z,100.00
2018-12-16T04:41:45.518Z,100.00
2018-12-16T04:44:13.097Z,100.00
2018-12-16T04:46:40.617Z,100.00
2018-12-16T04:49:08.449Z,100.00
2018-12-16T04:51:35.978Z,100.00
2018-12-16T04:54:04.815Z,100.00
2018-12-16T04:56:32.329Z,100.00
2018-12-16T04:58:59.843Z,100.00
2018-12-16T05:01:27.560Z,100.00
2018-12-16T05:03:55.107Z,100.00
2018-12-16T05:06:22.636Z,100.00
2018-12-16T05:08:50.204Z,100.00
2018-12-16T05:11:17.842Z,100.00
2018-12-16T05:13:45.381Z,100.00
2018-12-16T05:16:13.230Z,100.00
2018-12-16T05:18:40.737Z,100.00
2018-12-16T05:21:08.557Z,100.00
2018-12-16T05:23:41.647Z,100.00
2018-12-16T05:26:09.453Z,100.00
2018-12-16T05:28:36.955Z,100.00
2018-12-16T05:31:04.481Z,100.00
2018-12-16T05:33:32.270Z,100.00
2018-12-16T05:35:59.780Z,100.00
2018-12-16T05:38:27.705Z,100.00
2018-12-16T05:40:55.236Z,100.00
2018-12-16T05:43:23.124Z,100.00
2018-12-16T05:45:50.645Z,100.00
2018-12-16T05:48:18.450Z,100.00
2018-12-16T05:50:45.995Z,100.00
2018-12-16T05:53:13.777Z,100.00
2018-12-16T05:55:49.444Z,100.00
2018-12-16T05:58:17.220Z,100.00
2018-12-16T06:00:44.746Z,100.00
2018-12-16T06:03:12.273Z,100.00
2018-12-16T06:05:40.178Z,100.00
2018-12-16T06:08:07.712Z,100.00
2018-12-16T06:10:35.248Z,100.00
2018-12-16T06:13:02.826Z,100.00
2018-12-16T06:15:30.344Z,100.00
2018-12-16T06:17:57.852Z,100.00
2018-12-16T06:20:25.613Z,100.00
2018-12-16T06:22:53.169Z,100.00
2018-12-16T06:25:23.658Z,100.00
2018-12-16T06:27:51.487Z,100.00
2018-12-16T06:30:20.145Z,100.00
2018-12-16T06:32:47.659Z,100.00
2018-12-16T06:35:15.379Z,100.00
2018-12-16T06:37:42.893Z,100.00
2018-12-16T06:43:03.872Z,100.00
2018-12-16T06:45:31.388Z,100.00
2018-12-16T06:47:58.902Z,100.00
2018-12-16T06:50:26.525Z,100.00
2018-12-16T06:52:54.036Z,98.93
2018-12-16T06:55:21.856Z,98.10
2018-12-16T06:57:49.363Z,94.96
2018-12-16T07:00:20.155Z,91.74
2018-12-16T07:06:11.167Z,91.93
2018-12-16T07:08:38.664Z,91.16
2018-12-16T07:11:06.336Z,90.75
2018-12-16T07:13:33.917Z,90.85
2018-12-16T07:16:01.536Z,91.69
2018-12-16T07:18:29.079Z,91.51
2018-12-16T07:20:56.572Z,92.44
2018-12-16T07:23:24.080Z,93.11
2018-12-16T07:25:51.965Z,92.62
2018-12-16T07:28:19.483Z,93.20
2018-12-16T07:30:47.015Z,93.47
2018-12-16T07:33:14.785Z,92.61
2018-12-16T07:35:53.076Z,92.70
2018-12-16T07:38:20.682Z,93.20
2018-12-16T07:40:48.180Z,93.45
2018-12-16T07:43:39.448Z,93.31
2018-12-16T07:46:22.078Z,92.22
2018-12-16T07:48:49.852Z,92.90
2018-12-16T07:51:23.947Z,93.85
2018-12-16T07:56:50.178Z,93.16
2018-12-16T08:12:30.226Z,91.88
2018-12-16T08:15:04.151Z,92.06
2018-12-16T08:17:31.681Z,91.89
2018-12-16T08:19:59.212Z,92.04
2018-12-16T08:22:26.943Z,92.80
2018-12-16T08:24:54.472Z,91.92
2018-12-16T08:27:21.975Z,92.50
2018-12-16T08:29:49.815Z,93.61
2018-12-16T08:32:17.342Z,93.73
2018-12-16T08:34:44.845Z,94.25
2018-12-16T08:37:12.487Z,94.76
2018-12-16T08:39:40.042Z,95.12
2018-12-16T08:42:07.575Z,95.75
2018-12-16T08:44:35.159Z,96.67
2018-12-16T08:47:02.672Z,96.40
2018-12-16T08:49:30.204Z,96.70
2018-12-16T08:51:57.706Z,97.09
2018-12-16T08:54:30.049Z,97.21
2018-12-16T08:56:54.799Z,97.56
2018-12-16T08:59:22.323Z,97.42
2018-12-16T09:01:49.847Z,97.10
2018-12-16T09:04:17.814Z,96.92
2018-12-16T09:06:45.325Z,98.90
2018-12-16T09:09:13.103Z,99.47
2018-12-16T09:11:40.880Z,100.00
2018-12-16T09:14:08.400Z,100.00
2018-12-16T09:16:35.915Z,100.00
2018-12-16T09:19:03.853Z,100.00
2018-12-16T09:21:31.460Z,100.00
2018-12-16T09:23:59.070Z,100.00
2018-12-16T09:26:26.598Z,100.00
2018-12-16T09:32:04.243Z,100.00
2018-12-16T09:34:31.801Z,100.00
2018-12-16T09:36:59.320Z,100.00
2018-12-16T09:39:27.135Z,100.00
2018-12-16T09:41:54.651Z,100.00
2018-12-16T09:44:22.472Z,100.00
2018-12-16T09:46:50.023Z,100.00
2018-12-16T09:49:17.527Z,100.00
2018-12-16T09:51:45.348Z,100.00
2018-12-16T09:54:12.861Z,100.00
2018-12-16T09:56:40.368Z,100.00
2018-12-16T09:59:08.002Z,100.00
2018-12-16T10:01:35.620Z,100.00
2018-12-16T10:04:03.165Z,100.00
2018-12-16T10:06:30.937Z,100.00
2018-12-16T10:08:59.093Z,100.00
2018-12-16T10:11:26.671Z,100.00
2018-12-16T10:13:54.395Z,100.00
2018-12-16T10:16:22.044Z,100.00
2018-12-16T10:18:49.580Z,100.00
2018-12-16T10:21:17.397Z,100.00
2018-12-16T10:23:44.923Z,100.00
2018-12-16T10:26:12.445Z,100.00
2018-12-16T10:28:40.164Z,100.00
2018-12-16T10:31:07.704Z,100.00
2018-12-16T10:33:35.238Z,100.00
2018-12-16T10:36:02.785Z,100.00
2018-12-16T10:38:30.291Z,100.00
2018-12-16T10:40:57.811Z,100.00
2018-12-16T10:43:31.196Z,100.00
2018-12-16T10:45:58.720Z,100.00
2018-12-16T10:48:26.249Z,100.00
2018-12-16T10:50:54.041Z,100.00
2018-12-16T10:53:21.737Z,100.00
2018-12-16T10:55:49.318Z,100.00
2018-12-16T10:58:17.115Z,100.00
2018-12-16T11:00:50.205Z,100.00
2018-12-16T11:03:18.081Z,100.00
2018-12-16T11:05:45.832Z,100.00
2018-12-16T11:08:13.377Z,100.00
2018-12-16T11:10:41.278Z,100.00
2018-12-16T11:13:08.850Z,100.00
2018-12-16T11:15:36.375Z,100.00
2018-12-16T11:18:04.251Z,100.00
2018-12-16T11:20:31.772Z,100.00
2018-12-16T11:22:59.306Z,100.00
2018-12-16T11:25:26.862Z,100.00
2018-12-16T11:27:54.577Z,100.00
2018-12-16T11:30:22.122Z,100.00
2018-12-16T11:32:50.005Z,100.00
2018-12-16T11:35:17.527Z,100.00
2018-12-16T11:37:45.049Z,100.00
2018-12-16T11:40:13.093Z,100.00
2018-12-16T11:42:40.601Z,100.00
2018-12-16T11:45:08.561Z,100.00
2018-12-16T11:47:36.089Z,100.00
2018-12-16T11:50:04.462Z,100.00
2018-12-16T11:52:31.976Z,100.00
2018-12-16T11:54:59.512Z,100.00
2018-12-16T11:57:27.109Z,100.00
2018-12-16T11:59:54.619Z,100.00
2018-12-16T12:02:22.358Z,100.00
2018-12-16T12:04:49.889Z,100.00
2018-12-16T12:07:17.858Z,100.00
2018-12-16T12:09:45.963Z,100.00
2018-12-16T12:12:13.504Z,100.00
2018-12-16T12:14:41.016Z,100.00
2018-12-16T12:17:08.536Z,100.00
2018-12-16T12:19:38.128Z,100.00
2018-12-16T12:22:05.773Z,100.00
2018-12-16T12:24:33.343Z,100.00
2018-12-16T12:27:00.980Z,100.00
2018-12-16T12:29:28.542Z,100.00
2018-12-16T12:31:56.107Z,100.00
2018-12-16T12:34:23.632Z,100.00
2018-12-16T12:36:51.444Z,100.00
2018-12-16T12:39:18.973Z,100.00
2018-12-16T12:41:46.489Z,100.00
2018-12-16T12:44:14.414Z,100.00
2018-12-16T12:46:41.935Z,100.00
2018-12-16T12:49:09.564Z,100.00
2018-12-16T12:51:37.520Z,100.00
2018-12-16T12:54:06.606Z,100.00
2018-12-16T12:56:34.315Z,100.00
2018-12-16T12:59:01.919Z,100.00
2018-12-16T13:01:29.436Z,100.00
2018-12-16T13:03:56.935Z,100.00
2018-12-16T13:06:24.945Z,100.00
2018-12-16T13:08:52.498Z,100.00
2018-12-16T13:11:20.021Z,100.00
2018-12-16T13:13:47.799Z,100.00
2018-12-16T13:16:15.330Z,100.00
2018-12-16T13:18:42.841Z,100.00
2018-12-16T13:21:10.394Z,100.00
2018-12-16T13:23:37.910Z,100.00
2018-12-16T13:26:05.576Z,100.00
2018-12-16T13:28:33.371Z,100.00
2018-12-16T13:31:00.886Z,100.00
2018-12-16T13:33:28.391Z,100.00
2018-12-16T13:35:55.946Z,100.00
2018-12-16T13:38:23.471Z,100.00
2018-12-16T13:40:50.991Z,100.00
2018-12-16T13:43:18.782Z,100.00
2018-12-16T13:45:46.356Z,100.00
2018-12-16T13:48:13.885Z,100.00
2018-12-16T13:50:41.393Z,100.00
2018-12-16T13:53:08.929Z,100.00
2018-12-16T13:55:40.902Z,100.00
2018-12-16T13:58:06.379Z,100.00
2018-12-16T14:00:33.893Z,100.00
2018-12-16T14:03:01.747Z,100.00
2018-12-16T14:05:29.259Z,100.00
2018-12-16T14:07:56.947Z,100.00
2018-12-16T14:10:24.725Z,100.00
2018-12-16T14:12:52.284Z,100.00
2018-12-16T14:15:19.802Z,100.00
2018-12-16T14:17:47.718Z,100.00
2018-12-16T14:20:15.255Z,100.00
2018-12-16T14:22:42.775Z,100.00
2018-12-16T14:25:10.698Z,100.00
2018-12-16T14:27:38.232Z,100.00
2018-12-16T14:30:08.419Z,100.00
2018-12-16T14:32:36.015Z,100.00
2018-12-16T14:35:04.965Z,100.00
2018-12-16T14:37:32.467Z,100.00
2018-12-16T14:40:00.073Z,100.00
2018-12-16T14:42:27.729Z,100.00
2018-12-16T14:44:55.570Z,100.00
2018-12-16T14:47:23.099Z,100.00
2018-12-16T14:49:57.018Z,100.00
2018-12-16T14:52:24.531Z,100.00
2018-12-16T14:54:52.061Z,100.00
2018-12-16T14:57:19.917Z,100.00
2018-12-16T14:59:47.447Z,100.00
2018-12-16T15:02:14.984Z,100.00
2018-12-16T15:04:42.518Z,100.00
2018-12-16T15:07:10.080Z,100.00
2018-12-16T15:09:37.706Z,100.00
2018-12-16T15:12:05.290Z,100.00
2018-12-16T15:14:33.141Z,100.00
2018-12-16T15:17:00.675Z,100.00
2018-12-16T15:19:28.232Z,100.00
2018-12-16T15:21:56.009Z,100.00
2018-12-16T15:24:23.554Z,100.00
2018-12-16T15:26:52.613Z,100.00
2018-12-16T15:29:20.641Z,100.00
2018-12-16T15:31:48.169Z,100.00
2018-12-16T15:34:15.697Z,100.00
2018-12-16T15:36:43.522Z,100.00
2018-12-16T15:39:11.669Z,100.00
2018-12-16T15:41:39.237Z,100.00
2018-12-16T15:44:07.038Z,100.00
2018-12-16T15:46:34.562Z,100.00
2018-12-16T15:49:02.115Z,100.00
2018-12-16T15:51:29.998Z,100.00
2018-12-16T15:53:57.617Z,100.00
2018-12-16T15:56:25.284Z,100.00
2018-12-16T15:58:53.193Z,100.00
2018-12-16T16:01:20.722Z,100.00
2018-12-16T16:03:48.260Z,100.00
2018-12-16T16:06:16.073Z,100.00
2018-12-16T16:08:43.849Z,100.00
2018-12-16T16:11:11.376Z,100.00
2018-12-16T16:13:38.932Z,100.00
2018-12-16T16:16:06.489Z,100.00
2018-12-16T16:18:34.275Z,100.00
2018-12-16T16:21:01.814Z,100.00
2018-12-16T16:23:29.600Z,100.00
2018-12-16T16:25:57.238Z,100.00
2018-12-16T16:28:25.119Z,100.00
2018-12-16T16:30:54.243Z,100.00
2018-12-16T16:33:22.425Z,100.00
2018-12-16T16:35:50.251Z,100.00
2018-12-16T16:38:17.801Z,100.00
2018-12-16T16:40:45.680Z,100.00
2018-12-16T16:43:13.443Z,100.00
2018-12-16T16:45:40.983Z,100.00
2018-12-16T16:48:08.544Z,100.00
2018-12-16T16:50:36.202Z,100.00
2018-12-16T16:53:03.863Z,100.00
2018-12-16T16:55:31.525Z,100.00
2018-12-16T16:57:59.413Z,100.00
2018-12-16T17:00:26.938Z,100.00
2018-12-16T17:02:54.472Z,100.00
2018-12-16T17:05:22.293Z,100.00
2018-12-16T17:07:49.831Z,100.00
2018-12-16T17:10:17.354Z,100.00
2018-12-16T17:12:44.954Z,100.00
2018-12-16T17:15:12.547Z,100.00
2018-12-16T17:17:40.094Z,100.00
2018-12-16T17:20:08.095Z,100.00
2018-12-16T17:22:35.752Z,100.00
2018-12-16T17:25:03.439Z,100.00
2018-12-16T17:27:31.327Z,98.78
2018-12-16T17:29:58.864Z,98.83
2018-12-16T17:32:26.496Z,98.25
2018-12-16T17:34:54.345Z,98.06
2018-12-16T17:37:21.873Z,97.98
2018-12-16T17:39:49.447Z,98.88
2018-12-16T17:42:16.988Z,98.57
2018-12-16T17:44:47.571Z,98.00
2018-12-16T17:47:15.115Z,97.40
2018-12-16T17:49:42.628Z,96.67
2018-12-16T17:52:10.182Z,96.74
2018-12-16T17:54:37.744Z,97.93
2018-12-16T17:57:05.417Z,97.28
2018-12-16T17:59:32.934Z,96.88
2018-12-16T18:02:00.782Z,95.81
2018-12-16T18:04:28.622Z,95.77
2018-12-16T18:06:56.182Z,96.08
2018-12-16T18:09:23.705Z,96.05
2018-12-16T18:11:51.281Z,95.85
2018-12-16T18:14:19.081Z,96.05
2018-12-16T18:16:46.608Z,95.07
2018-12-16T18:19:14.161Z,95.45
2018-12-16T18:21:42.039Z,94.60
2018-12-16T18:24:09.585Z,94.42
2018-12-16T18:26:43.781Z,94.59
2018-12-16T18:29:06.930Z,94.13
2018-12-16T18:31:34.473Z,94.10
2018-12-16T18:34:02.007Z,94.65
2018-12-16T18:36:29.547Z,92.34
2018-12-16T18:38:57.192Z,92.14
2018-12-16T18:41:24.726Z,92.53
2018-12-16T18:43:52.505Z,92.01
2018-12-16T18:46:20.077Z,92.05
2018-12-16T18:48:47.606Z,91.81
2018-12-16T18:51:15.494Z,91.34
2018-12-16T18:53:43.049Z,91.20
2018-12-16T18:56:10.613Z,91.75
2018-12-16T18:58:38.425Z,92.06
2018-12-16T19:01:05.942Z,91.73
2018-12-16T19:03:33.454Z,91.93
2018-12-16T19:06:01.023Z,92.39
2018-12-16T19:08:28.753Z,91.80
2018-12-16T19:10:56.277Z,91.35
2018-12-16T19:13:24.165Z,92.53
2018-12-16T19:15:51.689Z,92.23
2018-12-16T19:18:19.263Z,92.23
2018-12-16T19:20:46.803Z,91.90
2018-12-16T19:23:14.312Z,91.81
2018-12-16T19:25:42.295Z,90.45
2018-12-16T19:28:10.357Z,91.25
2018-12-16T19:30:37.887Z,91.40
2018-12-16T19:33:05.439Z,91.16
2018-12-16T19:35:33.004Z,91.15
2018-12-16T19:38:02.368Z,91.50
2018-12-16T19:40:30.093Z,91.00
2018-12-16T19:42:57.949Z,90.62
2018-12-16T19:45:25.461Z,89.82
2018-12-16T19:47:52.973Z,90.40
2018-12-16T19:50:20.819Z,90.81
2018-12-16T19:52:48.349Z,90.44
2018-12-16T19:55:16.496Z,90.82
2018-12-16T19:57:44.315Z,90.16
2018-12-16T20:00:11.859Z,90.36
2018-12-16T20:02:39.405Z,90.63
2018-12-16T20:05:09.983Z,90.50
2018-12-16T20:07:37.495Z,90.18
2018-12-16T20:10:05.862Z,90.32
2018-12-16T20:12:33.669Z,90.84
2018-12-16T20:15:01.489Z,90.33
2018-12-16T20:17:29.000Z,90.95
2018-12-16T20:19:56.532Z,90.10
2018-12-16T20:22:24.200Z,89.31
2018-12-16T20:24:51.711Z,89.76
2018-12-16T20:27:19.310Z,90.26
2018-12-16T20:29:47.088Z,89.84
2018-12-16T20:32:14.614Z,90.43
2018-12-16T20:34:42.151Z,90.05
2018-12-16T20:37:10.261Z,90.14
2018-12-16T20:39:37.781Z,90.47
2018-12-16T20:42:05.442Z,89.42
2018-12-16T20:44:33.149Z,89.79
2018-12-16T20:47:00.697Z,89.87
2018-12-16T20:49:28.232Z,89.74
2018-12-16T20:51:56.050Z,89.55
2018-12-16T20:54:23.567Z,88.69
2018-12-16T20:56:51.090Z,89.21
2018-12-16T20:59:18.874Z,90.13
2018-12-16T21:01:46.417Z,88.80
2018-12-16T21:04:13.938Z,88.36
2018-12-16T21:06:41.507Z,89.69
2018-12-16T21:09:09.023Z,89.29
2018-12-16T21:11:42.570Z,88.26
2018-12-16T21:14:15.959Z,88.61
2018-12-16T21:16:48.985Z,88.50
2018-12-16T21:19:16.787Z,88.36
2018-12-16T21:21:44.301Z,88.29
2018-12-16T21:24:11.844Z,88.28
2018-12-16T21:26:39.564Z,88.21
2018-12-16T21:29:07.129Z,89.01
2018-12-16T21:31:34.651Z,88.38
2018-12-16T21:34:02.451Z,89.04
2018-12-16T21:36:29.966Z,87.49
2018-12-16T21:38:57.476Z,87.32
2018-12-16T21:41:25.273Z,87.29
2018-12-16T21:43:52.797Z,86.98
2018-12-16T21:46:20.317Z,86.69
2018-12-16T21:48:48.238Z,87.17
2018-12-16T21:51:15.754Z,86.96
2018-12-16T21:53:43.281Z,87.58
2018-12-16T21:56:11.030Z,87.50
2018-12-16T21:58:38.547Z,87.54
2018-12-16T22:01:06.076Z,87.12
2018-12-16T22:03:33.608Z,87.15
2018-12-16T22:06:01.185Z,87.37
2018-12-16T22:08:28.740Z,87.78
2018-12-16T22:10:56.347Z,87.30
2018-12-16T22:13:23.869Z,87.21
2018-12-16T22:15:51.480Z,87.01
2018-12-16T22:18:19.004Z,87.88
2018-12-16T22:20:46.805Z,87.25
2018-12-16T22:23:14.343Z,86.93
2018-12-16T22:25:42.184Z,86.81
2018-12-16T22:28:09.718Z,87.20
2018-12-16T22:30:37.543Z,87.72
2018-12-16T22:33:05.083Z,88.41
2018-12-16T22:35:34.372Z,88.37
2018-12-16T22:38:01.902Z,88.20
2018-12-16T22:40:29.941Z,88.79
2018-12-16T22:42:57.807Z,89.10
2018-12-16T22:45:25.320Z,88.66
2018-12-16T22:47:53.327Z,88.55
2018-12-16T22:50:20.877Z,88.07
2018-12-16T22:52:48.396Z,88.25
2018-12-16T22:55:16.215Z,88.74
2018-12-16T22:57:47.084Z,88.71
2018-12-16T23:00:15.719Z,87.92
2018-12-16T23:02:43.467Z,87.33
2018-12-16T23:05:10.999Z,86.08
2018-12-16T23:07:38.523Z,86.52
2018-12-16T23:10:06.311Z,86.00
2018-12-16T23:12:33.853Z,86.08
2018-12-16T23:15:01.376Z,86.21
2018-12-16T23:17:29.265Z,87.37
2018-12-16T23:20:17.575Z,87.11
2018-12-16T23:22:45.170Z,86.58
2018-12-16T23:25:12.706Z,86.14
2018-12-16T23:27:40.224Z,85.41
2018-12-16T23:30:08.747Z,86.13
2018-12-16T23:32:36.304Z,86.40
2018-12-16T23:35:04.492Z,86.35
2018-12-16T23:37:32.229Z,86.14
2018-12-16T23:39:59.753Z,86.50
2018-12-16T23:42:27.265Z,86.18
2018-12-16T23:44:55.249Z,86.08
2018-12-16T23:47:22.789Z,86.34
2018-12-16T23:49:50.311Z,85.67
2018-12-16T23:52:19.562Z,86.15
2018-12-16T23:54:47.072Z,86.27
2018-12-16T23:57:14.611Z,85.44
2018-12-16T23:59:42.346Z,85.61
